sensor_id;sensor_type;location;lat;lon;timestamp;pressure;altitude;pressure_sealevel;temperature;humidity
6851;BME280;3464;42.728;23.296;2022-07-19T00:01:12;95928.64;;;20.18;68.19
6851;BME280;3464;42.728;23.296;2022-07-19T00:04:04;95931.83;;;20.05;69.15
6851;BME280;3464;42.728;23.296;2022-07-19T00:06:56;95926.82;;;19.99;69.71
6851;BME280;3464;42.728;23.296;2022-07-19T00:09:47;95926.14;;;19.89;70.52
6851;BME280;3464;42.728;23.296;2022-07-19T00:12:37;95929.56;;;19.90;71.16
6851;BME280;3464;42.728;23.296;2022-07-19T00:15:29;95927.65;;;20.02;70.80
6851;BME280;3464;42.728;23.296;2022-07-19T00:18:23;95925.59;;;19.96;71.20
6851;BME280;3464;42.728;23.296;2022-07-19T00:21:13;95924.23;;;20.00;71.45
6851;BME280;3464;42.728;23.296;2022-07-19T00:24:04;95926.37;;;19.99;71.80
6851;BME280;3464;42.728;23.296;2022-07-19T00:26:54;95925.99;;;19.98;72.41
6851;BME280;3464;42.728;23.296;2022-07-19T00:29:43;95925.97;;;19.99;72.53
6851;BME280;3464;42.728;23.296;2022-07-19T00:32:35;95923.78;;;20.02;72.41
6851;BME280;3464;42.728;23.296;2022-07-19T00:35:26;95922.23;;;19.94;73.10
6851;BME280;3464;42.728;23.296;2022-07-19T00:38:18;95922.61;;;19.96;73.58
6851;BME280;3464;42.728;23.296;2022-07-19T00:41:10;95921.78;;;19.94;73.86
6851;BME280;3464;42.728;23.296;2022-07-19T00:44:00;95920.83;;;20.01;73.70
6851;BME280;3464;42.728;23.296;2022-07-19T00:46:56;95919.55;;;20.00;74.03
6851;BME280;3464;42.728;23.296;2022-07-19T00:49:46;95926.37;;;20.01;74.28
6851;BME280;3464;42.728;23.296;2022-07-19T00:52:38;95923.04;;;19.96;75.14
6851;BME280;3464;42.728;23.296;2022-07-19T00:55:28;95919.12;;;20.00;75.22
6851;BME280;3464;42.728;23.296;2022-07-19T00:58:20;95905.43;;;19.80;76.16
6851;BME280;3464;42.728;23.296;2022-07-19T01:01:13;95921.64;;;19.78;76.50
6851;BME280;3464;42.728;23.296;2022-07-19T01:04:04;95920.19;;;19.89;76.91
6851;BME280;3464;42.728;23.296;2022-07-19T01:07:01;95915.73;;;19.76;77.33
6851;BME280;3464;42.728;23.296;2022-07-19T01:09:50;95911.14;;;19.95;77.07
6851;BME280;3464;42.728;23.296;2022-07-19T01:12:41;95912.77;;;19.99;77.08
6851;BME280;3464;42.728;23.296;2022-07-19T01:15:30;95916.65;;;19.96;77.56
6851;BME280;3464;42.728;23.296;2022-07-19T01:18:22;95913.55;;;19.79;79.09
6851;BME280;3464;42.728;23.296;2022-07-19T01:21:16;95913.57;;;19.77;79.22
6851;BME280;3464;42.728;23.296;2022-07-19T01:24:08;95903.38;;;19.76;80.04
6851;BME280;3464;42.728;23.296;2022-07-19T01:27:01;95907.19;;;19.77;80.62
6851;BME280;3464;42.728;23.296;2022-07-19T01:29:53;95905.38;;;19.57;81.14
6851;BME280;3464;42.728;23.296;2022-07-19T01:32:53;95902.86;;;19.55;82.17
6851;BME280;3464;42.728;23.296;2022-07-19T01:35:47;95906.25;;;19.81;81.04
6851;BME280;3464;42.728;23.296;2022-07-19T01:38:38;95907.71;;;19.71;81.32
6851;BME280;3464;42.728;23.296;2022-07-19T01:41:34;95908.73;;;19.61;81.94
6851;BME280;3464;42.728;23.296;2022-07-19T01:44:27;95902.50;;;19.77;81.23
6851;BME280;3464;42.728;23.296;2022-07-19T01:47:17;95910.16;;;19.77;80.98
6851;BME280;3464;42.728;23.296;2022-07-19T01:50:08;95913.74;;;19.67;81.88
6851;BME280;3464;42.728;23.296;2022-07-19T01:53:05;95908.97;;;19.47;82.79
6851;BME280;3464;42.728;23.296;2022-07-19T01:55:56;95906.48;;;19.42;83.74
6851;BME280;3464;42.728;23.296;2022-07-19T01:58:46;95905.78;;;19.32;84.85
6851;BME280;3464;42.728;23.296;2022-07-19T02:01:36;95912.65;;;19.30;85.04
6851;BME280;3464;42.728;23.296;2022-07-19T02:04:27;95903.75;;;19.25;86.04
6851;BME280;3464;42.728;23.296;2022-07-19T02:07:20;95910.55;;;19.25;86.13
6851;BME280;3464;42.728;23.296;2022-07-19T02:10:20;95905.77;;;19.33;86.20
6851;BME280;3464;42.728;23.296;2022-07-19T02:13:13;95913.45;;;19.32;85.88
6851;BME280;3464;42.728;23.296;2022-07-19T02:16:09;95917.34;;;19.27;86.24
6851;BME280;3464;42.728;23.296;2022-07-19T02:19:04;95911.80;;;19.29;86.51
6851;BME280;3464;42.728;23.296;2022-07-19T02:21:55;95915.98;;;19.34;86.17
6851;BME280;3464;42.728;23.296;2022-07-19T02:24:48;95914.95;;;19.14;86.93
6851;BME280;3464;42.728;23.296;2022-07-19T02:27:39;95912.41;;;19.14;87.24
6851;BME280;3464;42.728;23.296;2022-07-19T02:30:29;95914.38;;;19.25;86.74
6851;BME280;3464;42.728;23.296;2022-07-19T02:33:24;95916.79;;;19.37;86.68
6851;BME280;3464;42.728;23.296;2022-07-19T02:36:17;95919.19;;;19.47;85.47
6851;BME280;3464;42.728;23.296;2022-07-19T02:39:11;95925.83;;;19.28;85.79
6851;BME280;3464;42.728;23.296;2022-07-19T02:42:02;95919.86;;;19.31;86.01
6851;BME280;3464;42.728;23.296;2022-07-19T02:44:55;95920.78;;;19.24;86.14
6851;BME280;3464;42.728;23.296;2022-07-19T02:47:45;95927.66;;;19.19;86.60
6851;BME280;3464;42.728;23.296;2022-07-19T02:50:37;95925.45;;;19.27;86.21
6851;BME280;3464;42.728;23.296;2022-07-19T02:53:28;95930.47;;;19.33;85.35
6851;BME280;3464;42.728;23.296;2022-07-19T02:56:19;95922.86;;;19.30;85.25
6851;BME280;3464;42.728;23.296;2022-07-19T02:59:15;95926.72;;;19.25;85.60
6851;BME280;3464;42.728;23.296;2022-07-19T03:02:14;95930.98;;;19.26;85.43
6851;BME280;3464;42.728;23.296;2022-07-19T03:05:11;95931.14;;;19.13;85.65
6851;BME280;3464;42.728;23.296;2022-07-19T03:08:02;95930.30;;;19.14;85.99
6851;BME280;3464;42.728;23.296;2022-07-19T03:10:53;95926.09;;;19.09;86.28
6851;BME280;3464;42.728;23.296;2022-07-19T03:13:47;95922.95;;;19.20;84.91
6851;BME280;3464;42.728;23.296;2022-07-19T03:16:38;95930.00;;;19.03;86.06
6851;BME280;3464;42.728;23.296;2022-07-19T03:19:33;95932.06;;;19.06;85.98
6851;BME280;3464;42.728;23.296;2022-07-19T03:22:25;95932.28;;;19.22;85.31
6851;BME280;3464;42.728;23.296;2022-07-19T03:25:19;95929.08;;;19.09;86.16
6851;BME280;3464;42.728;23.296;2022-07-19T03:28:08;95928.77;;;19.00;86.27
6851;BME280;3464;42.728;23.296;2022-07-19T03:30:57;95933.10;;;19.25;85.38
6851;BME280;3464;42.728;23.296;2022-07-19T03:33:49;95937.39;;;19.22;85.09
6851;BME280;3464;42.728;23.296;2022-07-19T03:36:40;95938.98;;;19.32;85.11
6851;BME280;3464;42.728;23.296;2022-07-19T03:39:33;95950.56;;;19.54;83.78
6851;BME280;3464;42.728;23.296;2022-07-19T03:42:25;95950.08;;;20.56;78.93
6851;BME280;3464;42.728;23.296;2022-07-19T03:45:17;95940.99;;;22.48;67.17
6851;BME280;3464;42.728;23.296;2022-07-19T03:48:08;95951.20;;;23.81;60.89
6851;BME280;3464;42.728;23.296;2022-07-19T03:50:58;95942.11;;;25.19;55.74
6851;BME280;3464;42.728;23.296;2022-07-19T03:53:54;95938.52;;;26.50;51.07
6851;BME280;3464;42.728;23.296;2022-07-19T03:56:45;95943.41;;;26.27;51.17
6851;BME280;3464;42.728;23.296;2022-07-19T03:59:35;95948.19;;;27.52;48.43
6851;BME280;3464;42.728;23.296;2022-07-19T04:02:26;95949.08;;;27.60;47.62
6851;BME280;3464;42.728;23.296;2022-07-19T04:05:23;95948.41;;;28.53;45.46
6851;BME280;3464;42.728;23.296;2022-07-19T04:08:12;95948.67;;;30.52;41.16
6851;BME280;3464;42.728;23.296;2022-07-19T04:11:03;95947.48;;;30.06;41.77
6851;BME280;3464;42.728;23.296;2022-07-19T04:13:55;95942.74;;;33.06;37.28
6851;BME280;3464;42.728;23.296;2022-07-19T04:16:47;95952.20;;;31.16;39.13
6851;BME280;3464;42.728;23.296;2022-07-19T04:19:37;95955.02;;;31.82;37.93
6851;BME280;3464;42.728;23.296;2022-07-19T04:22:28;95952.11;;;31.31;38.25
6851;BME280;3464;42.728;23.296;2022-07-19T04:25:18;95944.32;;;33.46;35.23
6851;BME280;3464;42.728;23.296;2022-07-19T04:28:08;95947.92;;;34.27;34.29
6851;BME280;3464;42.728;23.296;2022-07-19T04:31:00;95947.05;;;32.82;34.78
6851;BME280;3464;42.728;23.296;2022-07-19T04:33:48;95946.92;;;29.54;40.69
6851;BME280;3464;42.728;23.296;2022-07-19T04:36:43;95950.58;;;35.95;31.80
6851;BME280;3464;42.728;23.296;2022-07-19T04:39:35;95947.13;;;35.18;32.06
6851;BME280;3464;42.728;23.296;2022-07-19T04:42:28;95948.15;;;34.48;33.15
6851;BME280;3464;42.728;23.296;2022-07-19T04:45:19;95953.17;;;36.43;31.11
6851;BME280;3464;42.728;23.296;2022-07-19T04:48:12;95952.96;;;36.71;30.10
6851;BME280;3464;42.728;23.296;2022-07-19T04:51:03;95959.40;;;38.89;27.98
6851;BME280;3464;42.728;23.296;2022-07-19T04:53:55;95954.96;;;37.20;28.53
6851;BME280;3464;42.728;23.296;2022-07-19T04:56:46;95962.32;;;34.96;31.60
6851;BME280;3464;42.728;23.296;2022-07-19T04:59:35;95955.65;;;35.92;31.38
6851;BME280;3464;42.728;23.296;2022-07-19T05:02:24;95960.09;;;30.50;38.38
6851;BME280;3464;42.728;23.296;2022-07-19T05:05:14;95953.09;;;33.63;33.99
6851;BME280;3464;42.728;23.296;2022-07-19T05:08:05;95953.42;;;36.50;30.53
6851;BME280;3464;42.728;23.296;2022-07-19T05:10:54;95953.72;;;36.52;29.97
6851;BME280;3464;42.728;23.296;2022-07-19T05:13:44;95951.47;;;39.13;27.17
6851;BME280;3464;42.728;23.296;2022-07-19T05:16:37;95955.43;;;38.18;27.84
6851;BME280;3464;42.728;23.296;2022-07-19T05:19:26;95954.69;;;38.02;28.02
6851;BME280;3464;42.728;23.296;2022-07-19T05:22:16;95958.55;;;37.54;28.34
6851;BME280;3464;42.728;23.296;2022-07-19T05:25:06;95961.84;;;36.17;29.97
6851;BME280;3464;42.728;23.296;2022-07-19T05:27:55;95958.41;;;36.49;29.76
6851;BME280;3464;42.728;23.296;2022-07-19T05:30:46;95955.53;;;37.17;28.87
6851;BME280;3464;42.728;23.296;2022-07-19T05:33:35;95954.53;;;38.62;27.69
6851;BME280;3464;42.728;23.296;2022-07-19T05:36:26;95964.19;;;37.04;29.30
6851;BME280;3464;42.728;23.296;2022-07-19T05:39:17;95961.63;;;37.18;28.20
6851;BME280;3464;42.728;23.296;2022-07-19T05:42:08;95968.02;;;36.22;29.51
6851;BME280;3464;42.728;23.296;2022-07-19T05:44:57;95968.28;;;36.71;28.68
6851;BME280;3464;42.728;23.296;2022-07-19T05:47:46;95956.67;;;39.19;26.62
6851;BME280;3464;42.728;23.296;2022-07-19T05:50:35;95951.67;;;38.16;27.53
6851;BME280;3464;42.728;23.296;2022-07-19T05:53:26;95957.14;;;39.36;25.78
6851;BME280;3464;42.728;23.296;2022-07-19T05:56:16;95964.09;;;32.61;33.81
6851;BME280;3464;42.728;23.296;2022-07-19T05:59:06;95948.67;;;35.20;30.91
6851;BME280;3464;42.728;23.296;2022-07-19T06:01:56;95937.05;;;38.51;27.38
6851;BME280;3464;42.728;23.296;2022-07-19T06:04:45;95949.73;;;37.14;28.47
6851;BME280;3464;42.728;23.296;2022-07-19T06:07:35;95952.00;;;36.98;28.25
6851;BME280;3464;42.728;23.296;2022-07-19T06:10:24;95954.47;;;34.96;30.57
6851;BME280;3464;42.728;23.296;2022-07-19T06:13:14;95952.02;;;36.78;28.95
6851;BME280;3464;42.728;23.296;2022-07-19T06:16:04;95951.24;;;34.70;30.76
6851;BME280;3464;42.728;23.296;2022-07-19T06:18:56;95946.24;;;36.99;29.02
6851;BME280;3464;42.728;23.296;2022-07-19T06:21:46;95941.94;;;34.83;31.02
6851;BME280;3464;42.728;23.296;2022-07-19T06:24:36;95949.00;;;34.54;31.29
6851;BME280;3464;42.728;23.296;2022-07-19T06:27:26;95952.70;;;34.97;31.58
6851;BME280;3464;42.728;23.296;2022-07-19T06:30:15;95947.70;;;34.77;31.82
6851;BME280;3464;42.728;23.296;2022-07-19T06:33:06;95939.03;;;36.45;30.11
6851;BME280;3464;42.728;23.296;2022-07-19T06:35:56;95946.27;;;35.78;30.69
6851;BME280;3464;42.728;23.296;2022-07-19T06:38:45;95942.72;;;36.58;29.28
6851;BME280;3464;42.728;23.296;2022-07-19T06:41:35;95938.69;;;35.53;30.29
6851;BME280;3464;42.728;23.296;2022-07-19T06:44:26;95932.51;;;37.21;28.50
6851;BME280;3464;42.728;23.296;2022-07-19T06:47:16;95931.28;;;36.80;29.37
6851;BME280;3464;42.728;23.296;2022-07-19T06:50:05;95937.33;;;35.70;29.85
6851;BME280;3464;42.728;23.296;2022-07-19T06:52:54;95925.05;;;38.20;27.38
6851;BME280;3464;42.728;23.296;2022-07-19T06:55:45;95929.34;;;40.14;25.81
6851;BME280;3464;42.728;23.296;2022-07-19T06:58:34;95935.50;;;40.93;24.46
6851;BME280;3464;42.728;23.296;2022-07-19T07:01:23;95935.16;;;38.58;26.25
6851;BME280;3464;42.728;23.296;2022-07-19T07:04:14;95926.37;;;34.36;32.00
6851;BME280;3464;42.728;23.296;2022-07-19T07:07:04;95930.59;;;33.97;32.46
6851;BME280;3464;42.728;23.296;2022-07-19T07:09:53;95926.96;;;38.13;27.14
6851;BME280;3464;42.728;23.296;2022-07-19T07:12:44;95931.08;;;37.47;28.00
6851;BME280;3464;42.728;23.296;2022-07-19T07:15:34;95929.31;;;34.89;30.55
6851;BME280;3464;42.728;23.296;2022-07-19T07:18:25;95933.42;;;34.52;31.14
6851;BME280;3464;42.728;23.296;2022-07-19T07:21:14;95926.42;;;38.10;26.29
6851;BME280;3464;42.728;23.296;2022-07-19T07:24:04;95924.16;;;38.00;26.38
6851;BME280;3464;42.728;23.296;2022-07-19T07:26:53;95926.84;;;37.21;26.64
6851;BME280;3464;42.728;23.296;2022-07-19T07:29:47;95931.77;;;36.11;28.29
6851;BME280;3464;42.728;23.296;2022-07-19T07:32:37;95928.38;;;35.62;29.45
6851;BME280;3464;42.728;23.296;2022-07-19T07:35:27;95921.70;;;38.13;24.42
6851;BME280;3464;42.728;23.296;2022-07-19T07:38:20;95926.52;;;36.43;26.30
6851;BME280;3464;42.728;23.296;2022-07-19T07:41:12;95919.23;;;33.79;27.18
6851;BME280;3464;42.728;23.296;2022-07-19T07:44:02;95921.30;;;34.91;25.52
6851;BME280;3464;42.728;23.296;2022-07-19T07:46:52;95916.61;;;35.12;27.02
6851;BME280;3464;42.728;23.296;2022-07-19T07:49:42;95906.38;;;35.37;27.58
6851;BME280;3464;42.728;23.296;2022-07-19T07:52:35;95909.05;;;37.09;25.79
6851;BME280;3464;42.728;23.296;2022-07-19T07:55:25;95907.91;;;36.82;25.47
6851;BME280;3464;42.728;23.296;2022-07-19T07:58:16;95903.89;;;37.92;23.90
6851;BME280;3464;42.728;23.296;2022-07-19T08:01:04;95928.47;;;34.71;24.87
6851;BME280;3464;42.728;23.296;2022-07-19T08:03:58;95910.40;;;35.84;24.70
6851;BME280;3464;42.728;23.296;2022-07-19T08:06:49;95898.48;;;36.80;24.20
6851;BME280;3464;42.728;23.296;2022-07-19T08:09:39;95901.38;;;36.51;24.67
6851;BME280;3464;42.728;23.296;2022-07-19T08:12:27;95902.02;;;35.42;24.76
6851;BME280;3464;42.728;23.296;2022-07-19T08:15:18;95898.66;;;36.67;23.87
6851;BME280;3464;42.728;23.296;2022-07-19T08:18:07;95903.06;;;36.41;24.30
6851;BME280;3464;42.728;23.296;2022-07-19T08:20:58;95909.00;;;34.01;26.69
6851;BME280;3464;42.728;23.296;2022-07-19T08:23:48;95911.97;;;31.00;29.69
6851;BME280;3464;42.728;23.296;2022-07-19T08:26:38;95904.39;;;31.99;29.63
6851;BME280;3464;42.728;23.296;2022-07-19T08:29:27;95916.16;;;33.68;27.06
6851;BME280;3464;42.728;23.296;2022-07-19T08:32:17;95910.44;;;30.90;30.68
6851;BME280;3464;42.728;23.296;2022-07-19T08:35:10;95906.81;;;31.89;30.52
6851;BME280;3464;42.728;23.296;2022-07-19T08:38:00;95894.22;;;34.06;27.38
6851;BME280;3464;42.728;23.296;2022-07-19T08:40:50;95908.95;;;31.55;30.19
6851;BME280;3464;42.728;23.296;2022-07-19T08:43:38;95907.47;;;29.56;32.24
6851;BME280;3464;42.728;23.296;2022-07-19T08:46:29;95901.81;;;28.69;33.84
6851;BME280;3464;42.728;23.296;2022-07-19T08:49:18;95901.92;;;27.81;34.67
6851;BME280;3464;42.728;23.296;2022-07-19T08:52:09;95890.02;;;29.28;32.79
6851;BME280;3464;42.728;23.296;2022-07-19T08:55:00;95895.64;;;29.58;32.93
6851;BME280;3464;42.728;23.296;2022-07-19T08:57:51;95890.50;;;29.02;33.54
6851;BME280;3464;42.728;23.296;2022-07-19T09:00:43;95894.17;;;28.50;34.85
6851;BME280;3464;42.728;23.296;2022-07-19T09:03:34;95904.39;;;28.52;34.36
6851;BME280;3464;42.728;23.296;2022-07-19T09:06:27;95888.59;;;28.90;34.09
6851;BME280;3464;42.728;23.296;2022-07-19T09:09:14;95886.03;;;29.52;32.99
6851;BME280;3464;42.728;23.296;2022-07-19T09:12:04;95888.30;;;29.35;33.27
6851;BME280;3464;42.728;23.296;2022-07-19T09:14:55;95886.12;;;29.04;33.69
6851;BME280;3464;42.728;23.296;2022-07-19T09:17:45;95879.06;;;28.41;34.84
6851;BME280;3464;42.728;23.296;2022-07-19T09:20:34;95875.69;;;29.05;34.30
6851;BME280;3464;42.728;23.296;2022-07-19T09:23:23;95874.59;;;30.02;32.37
6851;BME280;3464;42.728;23.296;2022-07-19T09:26:12;95880.66;;;28.85;33.92
6851;BME280;3464;42.728;23.296;2022-07-19T09:29:15;95875.58;;;29.07;33.85
6851;BME280;3464;42.728;23.296;2022-07-19T09:32:04;95890.15;;;28.52;34.79
6851;BME280;3464;42.728;23.296;2022-07-19T09:35:04;95883.19;;;27.85;35.56
6851;BME280;3464;42.728;23.296;2022-07-19T09:37:54;95882.27;;;27.87;35.83
6851;BME280;3464;42.728;23.296;2022-07-19T09:40:43;95870.13;;;28.39;35.35
6851;BME280;3464;42.728;23.296;2022-07-19T09:46:37;95861.52;;;29.66;33.06
6851;BME280;3464;42.728;23.296;2022-07-19T09:49:25;95864.39;;;29.68;33.16
6851;BME280;3464;42.728;23.296;2022-07-19T09:52:15;95867.56;;;29.12;34.36
6851;BME280;3464;42.728;23.296;2022-07-19T09:55:06;95864.68;;;28.43;35.57
6851;BME280;3464;42.728;23.296;2022-07-19T09:57:56;95874.91;;;28.30;35.68
6851;BME280;3464;42.728;23.296;2022-07-19T10:00:46;95871.97;;;27.86;36.46
6851;BME280;3464;42.728;23.296;2022-07-19T10:03:35;95865.30;;;27.98;35.90
6851;BME280;3464;42.728;23.296;2022-07-19T10:06:25;95864.47;;;28.32;35.68
6851;BME280;3464;42.728;23.296;2022-07-19T10:09:15;95862.78;;;28.22;35.48
6851;BME280;3464;42.728;23.296;2022-07-19T10:12:04;95857.19;;;28.55;35.59
6851;BME280;3464;42.728;23.296;2022-07-19T10:14:54;95856.44;;;29.18;34.62
6851;BME280;3464;42.728;23.296;2022-07-19T10:17:47;95848.53;;;28.72;35.15
6851;BME280;3464;42.728;23.296;2022-07-19T10:20:33;95846.37;;;28.72;34.87
6851;BME280;3464;42.728;23.296;2022-07-19T10:23:26;95844.98;;;28.58;35.61
6851;BME280;3464;42.728;23.296;2022-07-19T10:26:32;95842.37;;;29.60;33.69
6851;BME280;3464;42.728;23.296;2022-07-19T10:29:12;95842.05;;;29.88;33.51
6851;BME280;3464;42.728;23.296;2022-07-19T10:32:07;95835.17;;;30.24;32.46
6851;BME280;3464;42.728;23.296;2022-07-19T10:35:14;95831.47;;;30.85;31.22
6851;BME280;3464;42.728;23.296;2022-07-19T10:38:17;95824.87;;;30.51;32.14
6851;BME280;3464;42.728;23.296;2022-07-19T10:41:20;95835.88;;;30.91;31.89
6851;BME280;3464;42.728;23.296;2022-07-19T10:44:07;95828.96;;;30.69;32.06
6851;BME280;3464;42.728;23.296;2022-07-19T10:46:57;95824.98;;;31.46;30.84
6851;BME280;3464;42.728;23.296;2022-07-19T10:49:52;95825.13;;;30.61;32.14
6851;BME280;3464;42.728;23.296;2022-07-19T10:52:50;95833.16;;;30.29;32.39
6851;BME280;3464;42.728;23.296;2022-07-19T10:55:39;95825.26;;;30.09;32.57
6851;BME280;3464;42.728;23.296;2022-07-19T10:58:45;95819.02;;;29.60;32.61
6851;BME280;3464;42.728;23.296;2022-07-19T11:01:23;95823.00;;;29.89;32.86
6851;BME280;3464;42.728;23.296;2022-07-19T11:04:25;95814.82;;;29.73;33.25
6851;BME280;3464;42.728;23.296;2022-07-19T11:07:18;95817.63;;;29.24;33.64
6851;BME280;3464;42.728;23.296;2022-07-19T11:10:08;95813.06;;;29.81;32.73
6851;BME280;3464;42.728;23.296;2022-07-19T11:12:58;95803.11;;;29.73;32.77
6851;BME280;3464;42.728;23.296;2022-07-19T11:18:47;95800.20;;;30.79;31.88
6851;BME280;3464;42.728;23.296;2022-07-19T11:21:40;95809.23;;;30.09;32.00
6851;BME280;3464;42.728;23.296;2022-07-19T11:24:30;95804.62;;;29.92;32.68
6851;BME280;3464;42.728;23.296;2022-07-19T11:27:25;95803.83;;;29.68;32.86
6851;BME280;3464;42.728;23.296;2022-07-19T11:30:16;95795.70;;;29.82;31.92
6851;BME280;3464;42.728;23.296;2022-07-19T11:33:09;95791.67;;;30.41;31.88
6851;BME280;3464;42.728;23.296;2022-07-19T11:36:04;95803.36;;;30.41;31.21
6851;BME280;3464;42.728;23.296;2022-07-19T11:38:55;95791.69;;;29.62;31.80
6851;BME280;3464;42.728;23.296;2022-07-19T11:41:45;95800.68;;;29.63;31.70
6851;BME280;3464;42.728;23.296;2022-07-19T11:44:36;95798.02;;;28.95;33.23
6851;BME280;3464;42.728;23.296;2022-07-19T11:47:25;95802.58;;;28.43;34.12
6851;BME280;3464;42.728;23.296;2022-07-19T11:50:24;95798.19;;;28.20;34.16
6851;BME280;3464;42.728;23.296;2022-07-19T11:53:18;95800.86;;;28.26;34.24
6851;BME280;3464;42.728;23.296;2022-07-19T11:59:04;95783.92;;;29.61;33.12
6851;BME280;3464;42.728;23.296;2022-07-19T12:01:57;95788.61;;;29.77;32.27
6851;BME280;3464;42.728;23.296;2022-07-19T12:04:47;95779.69;;;29.14;32.61
6851;BME280;3464;42.728;23.296;2022-07-19T12:07:38;95779.69;;;29.67;31.91
6851;BME280;3464;42.728;23.296;2022-07-19T12:10:47;95778.70;;;29.09;33.08
6851;BME280;3464;42.728;23.296;2022-07-19T12:13:37;95777.02;;;28.44;32.95
6851;BME280;3464;42.728;23.296;2022-07-19T12:16:27;95769.38;;;28.66;32.83
6851;BME280;3464;42.728;23.296;2022-07-19T12:19:17;95778.25;;;28.54;33.30
6851;BME280;3464;42.728;23.296;2022-07-19T12:22:24;95769.64;;;29.01;32.52
6851;BME280;3464;42.728;23.296;2022-07-19T12:24:57;95768.80;;;29.68;31.70
6851;BME280;3464;42.728;23.296;2022-07-19T12:27:46;95774.78;;;29.17;32.73
6851;BME280;3464;42.728;23.296;2022-07-19T12:30:36;95786.39;;;28.87;32.85
6851;BME280;3464;42.728;23.296;2022-07-19T12:33:26;95763.42;;;29.04;32.37
6851;BME280;3464;42.728;23.296;2022-07-19T12:36:31;95768.66;;;29.02;32.10
6851;BME280;3464;42.728;23.296;2022-07-19T12:39:27;95754.85;;;29.18;32.63
6851;BME280;3464;42.728;23.296;2022-07-19T12:42:17;95761.13;;;30.10;31.42
6851;BME280;3464;42.728;23.296;2022-07-19T12:45:08;95766.69;;;29.45;32.53
6851;BME280;3464;42.728;23.296;2022-07-19T12:47:58;95757.81;;;29.11;32.66
6851;BME280;3464;42.728;23.296;2022-07-19T12:50:48;95758.58;;;29.80;31.56
6851;BME280;3464;42.728;23.296;2022-07-19T12:53:37;95749.47;;;29.81;31.78
6851;BME280;3464;42.728;23.296;2022-07-19T12:56:26;95750.92;;;30.43;30.98
6851;BME280;3464;42.728;23.296;2022-07-19T12:59:15;95747.98;;;29.84;31.09
6851;BME280;3464;42.728;23.296;2022-07-19T13:02:12;95768.85;;;28.68;32.77
6851;BME280;3464;42.728;23.296;2022-07-19T13:05:01;95746.19;;;28.72;32.97
6851;BME280;3464;42.728;23.296;2022-07-19T13:07:50;95752.75;;;28.55;32.64
6851;BME280;3464;42.728;23.296;2022-07-19T13:10:38;95741.70;;;28.19;33.23
6851;BME280;3464;42.728;23.296;2022-07-19T13:13:28;95739.95;;;28.52;32.92
6851;BME280;3464;42.728;23.296;2022-07-19T13:16:18;95733.88;;;28.91;32.41
6851;BME280;3464;42.728;23.296;2022-07-19T13:19:07;95726.55;;;29.21;31.92
6851;BME280;3464;42.728;23.296;2022-07-19T13:21:56;95738.28;;;28.90;32.59
6851;BME280;3464;42.728;23.296;2022-07-19T13:24:45;95737.38;;;28.43;33.02
6851;BME280;3464;42.728;23.296;2022-07-19T13:27:35;95748.77;;;28.40;33.07
6851;BME280;3464;42.728;23.296;2022-07-19T13:30:25;95729.77;;;28.56;32.71
6851;BME280;3464;42.728;23.296;2022-07-19T13:33:14;95721.55;;;28.95;32.24
6851;BME280;3464;42.728;23.296;2022-07-19T13:36:04;95722.47;;;29.02;32.57
6851;BME280;3464;42.728;23.296;2022-07-19T13:38:53;95734.98;;;28.87;32.72
6851;BME280;3464;42.728;23.296;2022-07-19T13:41:43;95721.25;;;28.62;32.88
6851;BME280;3464;42.728;23.296;2022-07-19T13:44:33;95712.42;;;28.89;32.92
6851;BME280;3464;42.728;23.296;2022-07-19T13:47:22;95717.69;;;28.40;32.90
6851;BME280;3464;42.728;23.296;2022-07-19T13:50:12;95715.70;;;28.76;33.07
6851;BME280;3464;42.728;23.296;2022-07-19T13:53:01;95708.70;;;29.09;32.65
6851;BME280;3464;42.728;23.296;2022-07-19T13:55:50;95711.40;;;29.29;32.03
6851;BME280;3464;42.728;23.296;2022-07-19T13:58:40;95711.33;;;29.15;31.96
6851;BME280;3464;42.728;23.296;2022-07-19T14:01:29;95720.14;;;28.97;32.41
6851;BME280;3464;42.728;23.296;2022-07-19T14:04:20;95713.32;;;29.26;31.95
6851;BME280;3464;42.728;23.296;2022-07-19T14:07:09;95707.84;;;29.09;32.09
6851;BME280;3464;42.728;23.296;2022-07-19T14:10:01;95711.77;;;29.23;31.97
6851;BME280;3464;42.728;23.296;2022-07-19T14:12:51;95702.25;;;29.67;31.34
6851;BME280;3464;42.728;23.296;2022-07-19T14:15:41;95710.19;;;29.28;32.09
6851;BME280;3464;42.728;23.296;2022-07-19T14:18:31;95700.95;;;28.77;32.36
6851;BME280;3464;42.728;23.296;2022-07-19T14:21:22;95712.62;;;28.93;32.11
6851;BME280;3464;42.728;23.296;2022-07-19T14:24:12;95705.59;;;28.79;32.35
6851;BME280;3464;42.728;23.296;2022-07-19T14:27:01;95704.56;;;28.83;32.01
6851;BME280;3464;42.728;23.296;2022-07-19T14:29:52;95700.47;;;28.71;32.27
6851;BME280;3464;42.728;23.296;2022-07-19T14:32:41;95703.99;;;28.70;32.43
6851;BME280;3464;42.728;23.296;2022-07-19T14:35:32;95704.48;;;28.53;32.39
6851;BME280;3464;42.728;23.296;2022-07-19T14:38:22;95704.33;;;29.02;31.94
6851;BME280;3464;42.728;23.296;2022-07-19T14:41:12;95688.48;;;29.30;31.42
6851;BME280;3464;42.728;23.296;2022-07-19T14:44:02;95699.05;;;29.19;31.49
6851;BME280;3464;42.728;23.296;2022-07-19T14:46:51;95696.75;;;28.68;31.84
6851;BME280;3464;42.728;23.296;2022-07-19T14:49:41;95701.28;;;28.56;31.98
6851;BME280;3464;42.728;23.296;2022-07-19T14:52:30;95702.56;;;28.32;32.27
6851;BME280;3464;42.728;23.296;2022-07-19T14:55:20;95692.37;;;28.45;32.35
6851;BME280;3464;42.728;23.296;2022-07-19T14:58:10;95690.30;;;28.67;31.87
6851;BME280;3464;42.728;23.296;2022-07-19T15:01:00;95679.69;;;28.87;31.66
6851;BME280;3464;42.728;23.296;2022-07-19T15:03:49;95694.20;;;29.13;31.28
6851;BME280;3464;42.728;23.296;2022-07-19T15:06:38;95688.45;;;28.70;31.41
6851;BME280;3464;42.728;23.296;2022-07-19T15:09:27;95686.22;;;28.63;31.55
6851;BME280;3464;42.728;23.296;2022-07-19T15:12:17;95686.95;;;28.96;31.54
6851;BME280;3464;42.728;23.296;2022-07-19T15:15:08;95683.62;;;28.63;31.47
6851;BME280;3464;42.728;23.296;2022-07-19T15:17:58;95683.38;;;28.67;31.85
6851;BME280;3464;42.728;23.296;2022-07-19T15:20:47;95688.58;;;28.74;31.68
6851;BME280;3464;42.728;23.296;2022-07-19T15:23:36;95684.38;;;28.49;32.10
6851;BME280;3464;42.728;23.296;2022-07-19T15:26:27;95689.63;;;28.40;31.88